createdAt,value
2023-06-18T00:01:46.529Z,9.40
2023-06-18T00:04:16.746Z,9.70
2023-06-18T00:06:46.613Z,10.80
2023-06-18T00:09:16.502Z,12.00
2023-06-18T00:11:46.556Z,11.30
2023-06-18T00:14:16.446Z,11.50
2023-06-18T00:16:46.375Z,9.90
2023-06-18T00:19:16.130Z,13.40
2023-06-18T00:21:46.204Z,10.80
2023-06-18T00:24:16.242Z,10.20
2023-06-18T00:26:46.172Z,10.20
2023-06-18T00:29:16.807Z,10.70
2023-06-18T00:31:46.595Z,9.10
2023-06-18T00:34:18.437Z,9.70
2023-06-18T00:36:51.835Z,9.80
2023-06-18T00:39:23.295Z,10.50
2023-06-18T00:41:53.295Z,9.70
2023-06-18T00:44:23.139Z,13.10
2023-06-18T00:46:57.413Z,12.90
2023-06-18T00:49:27.740Z,9.30
2023-06-18T00:51:57.860Z,11.20
2023-06-18T00:54:28.483Z,11.00
2023-06-18T00:57:00.876Z,10.50
2023-06-18T00:59:30.989Z,11.30
2023-06-18T01:02:02.974Z,11.20
2023-06-18T01:04:34.327Z,10.60
2023-06-18T01:07:06.245Z,11.10
2023-06-18T01:09:37.696Z,11.20
2023-06-18T01:12:09.108Z,11.30
2023-06-18T01:14:38.954Z,10.20
2023-06-18T01:17:10.080Z,11.20
2023-06-18T01:19:47.526Z,10.20
2023-06-18T01:22:27.789Z,10.90
2023-06-18T01:25:00.135Z,10.80
2023-06-18T01:27:32.653Z,10.60
2023-06-18T01:30:03.329Z,11.40
2023-06-18T01:32:33.853Z,10.80
2023-06-18T01:35:05.957Z,11.50
2023-06-18T01:37:42.051Z,10.90
2023-06-18T01:40:17.841Z,11.90
2023-06-18T01:42:51.032Z,11.80
2023-06-18T01:45:23.992Z,10.50
2023-06-18T01:47:59.205Z,12.10
2023-06-18T01:50:29.247Z,13.30
2023-06-18T01:53:00.214Z,9.90
2023-06-18T01:55:30.846Z,9.60
2023-06-18T01:58:00.891Z,10.70
2023-06-18T02:00:30.869Z,10.70
2023-06-18T02:03:01.345Z,10.30
2023-06-18T02:05:31.256Z,9.90
2023-06-18T02:08:01.343Z,10.00
2023-06-18T02:10:31.611Z,10.90
2023-06-18T02:13:01.512Z,13.30
2023-06-18T02:15:31.589Z,10.60
2023-06-18T02:18:02.061Z,10.70
2023-06-18T02:20:32.169Z,10.80
2023-06-18T02:23:05.398Z,11.80
2023-06-18T02:25:35.296Z,10.70
2023-06-18T02:28:05.762Z,10.70
2023-06-18T02:30:36.367Z,10.80
2023-06-18T02:33:11.634Z,10.40
2023-06-18T02:35:43.021Z,9.90
2023-06-18T02:38:13.544Z,12.30
2023-06-18T02:40:43.422Z,10.50
2023-06-18T02:43:13.988Z,12.10
2023-06-18T02:45:44.205Z,12.00
2023-06-18T02:48:16.684Z,9.90
2023-06-18T02:50:46.452Z,12.70
2023-06-18T02:53:16.544Z,11.50
2023-06-18T02:55:46.619Z,11.60
2023-06-18T02:58:29.262Z,10.80
2023-06-18T03:01:03.509Z,10.90
2023-06-18T03:03:38.821Z,11.10
2023-06-18T03:06:08.620Z,10.10
2023-06-18T03:08:38.374Z,11.10
2023-06-18T03:11:08.494Z,10.50
2023-06-18T03:13:39.615Z,12.10
2023-06-18T03:16:09.480Z,12.40
2023-06-18T03:18:39.598Z,12.60
2023-06-18T03:21:09.738Z,10.90
2023-06-18T03:23:39.835Z,10.50
2023-06-18T03:26:11.209Z,9.60
2023-06-18T03:28:42.020Z,9.40
2023-06-18T03:31:11.947Z,10.30
2023-06-18T03:33:43.040Z,10.60
2023-06-18T03:36:16.713Z,10.80
2023-06-18T03:38:47.205Z,11.40
2023-06-18T03:41:17.223Z,10.50
2023-06-18T03:43:47.243Z,14.60
2023-06-18T03:46:17.321Z,9.40
2023-06-18T03:48:47.282Z,11.80
2023-06-18T03:51:17.323Z,10.20
2023-06-18T03:53:47.294Z,10.00
2023-06-18T03:56:18.265Z,10.50
2023-06-18T03:58:49.673Z,11.10
2023-06-18T04:01:20.000Z,12.50
2023-06-18T04:03:50.131Z,11.00
2023-06-18T04:06:20.042Z,11.20
2023-06-18T04:08:51.041Z,10.00
2023-06-18T04:11:21.264Z,11.20
2023-06-18T04:13:52.179Z,10.80
2023-06-18T04:16:22.446Z,10.60
2023-06-18T04:18:52.339Z,10.50
2023-06-18T04:21:22.728Z,9.60
2023-06-18T04:23:53.339Z,10.20
2023-06-18T04:26:25.093Z,9.80
2023-06-18T04:28:55.746Z,13.00
2023-06-18T04:31:26.523Z,10.50
2023-06-18T04:33:56.793Z,10.50
2023-06-18T04:36:26.893Z,10.30
2023-06-18T04:38:57.121Z,10.80
2023-06-18T04:41:27.431Z,11.70
2023-06-18T04:43:57.446Z,10.60
2023-06-18T04:46:27.265Z,10.70
2023-06-18T04:49:00.513Z,12.90
2023-06-18T04:51:31.103Z,11.90
2023-06-18T04:54:01.137Z,10.60
2023-06-18T04:56:31.604Z,12.70
2023-06-18T04:59:01.615Z,9.80
2023-06-18T05:01:31.419Z,10.90
2023-06-18T05:04:01.740Z,11.10
2023-06-18T05:06:32.378Z,10.60
2023-06-18T05:09:02.723Z,11.50
2023-06-18T05:11:32.960Z,11.10
2023-06-18T05:14:04.474Z,10.50
2023-06-18T05:16:36.153Z,14.40
2023-06-18T05:19:06.427Z,10.30
2023-06-18T05:21:36.739Z,12.10
2023-06-18T05:24:08.589Z,10.80
2023-06-18T05:26:40.349Z,9.90
2023-06-18T05:29:10.951Z,11.80
2023-06-18T05:31:41.126Z,10.80
2023-06-18T05:34:15.925Z,11.00
2023-06-18T05:36:46.403Z,11.10
2023-06-18T05:39:16.485Z,10.80
2023-06-18T05:41:46.497Z,13.40
2023-06-18T05:44:16.618Z,11.20
2023-06-18T05:46:46.665Z,11.20
2023-06-18T05:49:17.709Z,10.20
2023-06-18T05:51:48.676Z,11.00
2023-06-18T05:54:18.832Z,10.90
2023-06-18T05:56:49.123Z,12.20
2023-06-18T05:59:20.043Z,10.60
2023-06-18T06:01:53.208Z,11.30
2023-06-18T06:04:23.170Z,10.60
2023-06-18T06:06:53.722Z,12.50
2023-06-18T06:09:23.878Z,12.50
2023-06-18T06:11:54.164Z,11.90
2023-06-18T06:14:23.979Z,10.70
2023-06-18T06:16:58.845Z,11.70
2023-06-18T06:19:30.078Z,11.60
2023-06-18T06:21:59.981Z,12.70
2023-06-18T06:24:31.018Z,10.90
2023-06-18T06:27:01.199Z,11.50
2023-06-18T06:29:32.925Z,11.20
2023-06-18T06:32:02.973Z,12.50
2023-06-18T06:34:32.956Z,12.00
2023-06-18T06:37:03.623Z,11.30
2023-06-18T06:39:33.810Z,12.00
2023-06-18T06:42:04.382Z,10.90
2023-06-18T06:44:34.870Z,15.70
2023-06-18T06:47:19.368Z,11.30
2023-06-18T06:50:10.460Z,11.30
2023-06-18T06:52:56.169Z,15.80
2023-06-18T06:55:26.140Z,13.10
2023-06-18T06:57:56.104Z,12.50
2023-06-18T07:00:26.499Z,10.40
2023-06-18T07:02:57.588Z,12.70
2023-06-18T07:05:28.533Z,11.80
2023-06-18T07:07:58.631Z,11.30
2023-06-18T07:10:28.683Z,11.00
2023-06-18T07:12:59.045Z,11.60
2023-06-18T07:15:28.988Z,11.20
2023-06-18T07:17:59.117Z,11.60
2023-06-18T07:20:29.306Z,9.80
2023-06-18T07:22:59.764Z,9.80
2023-06-18T07:25:29.788Z,12.00
2023-06-18T07:27:59.535Z,10.70
2023-06-18T07:30:29.441Z,10.30
2023-06-18T07:32:59.511Z,10.00
2023-06-18T07:35:29.484Z,12.00
2023-06-18T07:37:59.421Z,10.50
2023-06-18T07:40:33.920Z,9.50
2023-06-18T07:43:03.939Z,9.90
2023-06-18T07:45:33.983Z,9.60
2023-06-18T07:48:04.095Z,9.30
2023-06-18T07:50:34.411Z,9.40
2023-06-18T07:53:04.149Z,9.10
2023-06-18T07:55:33.955Z,9.30
2023-06-18T07:58:03.985Z,9.70
2023-06-18T08:00:34.016Z,10.60
2023-06-18T08:03:03.879Z,10.90
2023-06-18T08:05:33.811Z,11.00
2023-06-18T08:08:03.865Z,10.20
2023-06-18T08:10:34.049Z,10.10
2023-06-18T08:13:04.456Z,8.10
2023-06-18T08:15:35.105Z,9.90
2023-06-18T08:18:05.195Z,10.50
2023-06-18T08:20:35.176Z,9.80
2023-06-18T08:23:04.969Z,9.40
2023-06-18T08:25:36.570Z,13.90
2023-06-18T08:28:06.606Z,9.30
2023-06-18T08:30:36.482Z,12.60
2023-06-18T08:33:06.559Z,9.00
2023-06-18T08:35:38.470Z,12.00
2023-06-18T08:38:08.310Z,12.70
2023-06-18T08:40:49.747Z,8.70
2023-06-18T08:43:23.941Z,9.10
2023-06-18T08:45:54.668Z,8.40
2023-06-18T08:48:32.419Z,9.10
2023-06-18T08:51:05.648Z,10.90
2023-06-18T08:53:41.674Z,9.50
2023-06-18T08:56:11.637Z,8.90
2023-06-18T08:58:49.771Z,9.50
2023-06-18T09:01:21.020Z,8.90
2023-06-18T09:03:51.040Z,7.80
2023-06-18T09:06:20.776Z,9.60
2023-06-18T10:04:34.544Z,9.20
2023-06-18T10:07:06.458Z,9.80
2023-06-18T10:09:38.189Z,8.20
2023-06-18T10:12:09.532Z,7.80
2023-06-18T10:14:39.775Z,8.10
2023-06-18T10:17:15.642Z,8.20
2023-06-18T10:19:48.223Z,9.00
2023-06-18T10:22:18.369Z,8.00
2023-06-18T10:24:54.103Z,10.30
2023-06-18T10:27:24.206Z,10.30
2023-06-18T10:29:54.282Z,9.40
2023-06-18T10:32:24.627Z,7.70
2023-06-18T10:34:56.688Z,7.80
2023-06-18T10:37:26.554Z,10.40
2023-06-18T10:39:57.129Z,10.00
2023-06-18T10:42:27.243Z,8.00
2023-06-18T10:44:59.181Z,10.20
2023-06-18T10:47:30.084Z,8.10
2023-06-18T10:50:17.677Z,9.30
2023-06-18T10:52:51.096Z,9.00
2023-06-18T10:55:32.353Z,7.80
2023-06-18T10:58:04.284Z,9.60
2023-06-18T11:00:36.707Z,8.40
2023-06-18T11:03:07.323Z,7.90
2023-06-18T11:05:48.285Z,7.70
2023-06-18T11:08:27.245Z,7.80
2023-06-18T11:11:04.465Z,9.20
2023-06-18T11:13:36.695Z,8.40
2023-06-18T11:16:15.236Z,8.80
2023-06-18T11:18:45.518Z,9.20
2023-06-18T11:21:18.186Z,9.00
2023-06-18T11:23:48.058Z,10.10
2023-06-18T11:26:18.927Z,8.00
2023-06-18T11:28:49.328Z,8.80
2023-06-18T11:31:19.427Z,7.50
2023-06-18T11:33:49.538Z,10.30
2023-06-18T11:36:20.977Z,9.40
2023-06-18T11:38:52.630Z,7.80
2023-06-18T11:41:23.574Z,9.90
2023-06-18T11:43:54.090Z,10.30
2023-06-18T11:46:31.380Z,8.40
2023-06-18T11:49:01.298Z,8.80
2023-06-18T11:51:32.229Z,8.00
2023-06-18T11:54:02.728Z,7.90
2023-06-18T11:56:32.782Z,7.50
2023-06-18T11:59:02.632Z,8.80
2023-06-18T12:01:33.679Z,8.50
2023-06-18T12:04:05.688Z,8.20
2023-06-18T12:06:35.810Z,7.30
2023-06-18T12:09:09.638Z,9.50
2023-06-18T12:11:48.704Z,9.40
2023-06-18T12:24:57.875Z,8.10
2023-06-18T12:27:28.147Z,8.90
2023-06-18T12:30:01.519Z,7.60
2023-06-18T12:32:32.041Z,7.80
2023-06-18T12:35:11.703Z,8.40
2023-06-18T12:37:45.988Z,8.70
2023-06-18T12:40:22.805Z,8.40
2023-06-18T12:42:53.169Z,9.90
2023-06-18T12:45:31.206Z,8.20
2023-06-18T12:48:12.332Z,8.80
2023-06-18T12:50:48.970Z,9.40
2023-06-18T12:53:23.521Z,8.60
2023-06-18T12:55:57.307Z,8.80
2023-06-18T12:58:27.931Z,8.50
2023-06-18T13:00:59.491Z,9.80
2023-06-18T13:03:29.593Z,8.00
2023-06-18T13:06:00.247Z,9.40
2023-06-18T13:08:30.848Z,7.50
2023-06-18T13:11:01.676Z,8.20
2023-06-18T13:13:31.602Z,8.70
2023-06-18T13:16:04.265Z,7.90
2023-06-18T13:18:34.739Z,8.60
2023-06-18T13:21:05.134Z,8.40
2023-06-18T13:23:35.447Z,8.90
2023-06-18T13:26:05.634Z,9.50
2023-06-18T13:28:35.553Z,8.80
2023-06-18T13:31:05.644Z,8.30
2023-06-18T13:33:36.371Z,7.70
2023-06-18T13:36:09.796Z,8.00
2023-06-18T13:38:41.285Z,8.90
2023-06-18T13:41:11.934Z,8.20
2023-06-18T13:43:41.654Z,9.20
2023-06-18T13:46:11.975Z,9.10
2023-06-18T13:48:42.711Z,8.10
2023-06-18T13:51:12.965Z,8.20
2023-06-18T13:53:42.821Z,9.20
2023-06-18T13:56:12.750Z,9.50
2023-06-18T13:58:43.589Z,9.00
2023-06-18T14:01:13.861Z,8.30
2023-06-18T14:03:43.811Z,9.20
2023-06-18T14:06:13.605Z,10.10
2023-06-18T14:08:44.542Z,8.90
2023-06-18T14:11:14.461Z,8.50
2023-06-18T14:13:45.335Z,7.50
2023-06-18T14:16:15.601Z,8.30
2023-06-18T14:18:45.542Z,8.20
2023-06-18T14:21:15.669Z,9.20
2023-06-18T14:23:46.504Z,8.40
2023-06-18T14:26:17.012Z,9.50
2023-06-18T14:28:46.790Z,8.30
2023-06-18T14:31:16.912Z,9.00
2023-06-18T14:33:53.033Z,9.00
2023-06-18T14:36:38.865Z,9.60
2023-06-18T14:39:10.069Z,8.10
2023-06-18T14:41:41.053Z,9.10
2023-06-18T14:44:11.043Z,8.30
2023-06-18T14:46:41.503Z,9.10
2023-06-18T14:49:11.397Z,9.40
2023-06-18T14:51:41.358Z,10.20
2023-06-18T14:54:14.988Z,8.70
2023-06-18T14:56:47.551Z,8.00
2023-06-18T14:59:18.407Z,9.20
2023-06-18T15:01:48.773Z,9.00
2023-06-18T15:04:19.305Z,9.00
2023-06-18T15:06:49.932Z,9.20
2023-06-18T15:09:20.161Z,9.20
2023-06-18T15:11:50.110Z,9.40
2023-06-18T15:14:20.125Z,8.50
2023-06-18T15:16:50.702Z,9.90
2023-06-18T15:19:21.277Z,7.90
2023-06-18T15:21:51.086Z,8.50
2023-06-18T15:24:21.148Z,8.10
2023-06-18T15:26:51.398Z,8.60
2023-06-18T15:29:21.346Z,8.40
2023-06-18T15:31:52.808Z,9.10
2023-06-18T15:34:23.167Z,9.70
2023-06-18T15:36:53.075Z,9.00
2023-06-18T15:39:23.073Z,8.70
2023-06-18T15:41:53.268Z,8.40
2023-06-18T15:44:23.159Z,9.60
2023-06-18T15:46:53.196Z,10.40
2023-06-18T15:49:23.095Z,10.60
2023-06-18T15:51:53.340Z,11.20
2023-06-18T15:54:23.510Z,12.50
2023-06-18T15:56:53.379Z,9.90
2023-06-18T15:59:23.624Z,13.60
2023-06-18T16:01:53.577Z,23.50
2023-06-18T16:04:24.647Z,17.60
2023-06-18T16:06:57.108Z,12.50
2023-06-18T16:09:27.222Z,11.40
2023-06-18T16:11:57.099Z,10.40
2023-06-18T16:14:27.700Z,9.50
2023-06-18T16:16:57.757Z,12.00
2023-06-18T16:19:27.932Z,9.00
2023-06-18T16:21:57.984Z,10.80
2023-06-18T16:24:28.018Z,9.20
2023-06-18T16:27:00.926Z,10.60
2023-06-18T16:29:30.856Z,10.30
2023-06-18T16:32:00.740Z,11.20
2023-06-18T16:34:30.914Z,9.00
2023-06-18T16:37:01.326Z,8.60
2023-06-18T16:39:31.320Z,9.50
2023-06-18T16:42:01.323Z,9.90
2023-06-18T16:44:31.800Z,9.90
2023-06-18T16:47:01.636Z,10.10
2023-06-18T16:49:31.941Z,13.90
2023-06-18T16:52:01.851Z,10.30
2023-06-18T16:54:32.812Z,12.40
2023-06-18T16:57:02.989Z,9.60
2023-06-18T16:59:33.044Z,11.30
2023-06-18T17:02:03.620Z,12.60
2023-06-18T17:04:34.768Z,9.70
2023-06-18T17:07:06.519Z,11.20
2023-06-18T17:09:37.152Z,10.40
2023-06-18T17:12:09.005Z,9.60
2023-06-18T17:14:39.229Z,9.10
2023-06-18T17:17:09.256Z,10.30
2023-06-18T17:19:39.633Z,11.20
2023-06-18T17:22:10.405Z,12.30
2023-06-18T17:24:41.204Z,11.60
2023-06-18T17:27:12.800Z,10.00
2023-06-18T17:29:43.630Z,9.10
2023-06-18T17:32:14.191Z,10.30
2023-06-18T17:34:44.349Z,11.70
2023-06-18T17:37:14.628Z,9.80
2023-06-18T17:39:45.138Z,10.60
2023-06-18T17:42:15.470Z,10.30
2023-06-18T17:44:45.718Z,9.20
2023-06-18T17:47:15.914Z,10.60
2023-06-18T17:49:49.988Z,9.70
2023-06-18T17:52:20.125Z,10.60
2023-06-18T17:54:50.262Z,10.50
2023-06-18T17:57:20.212Z,9.60
2023-06-18T17:59:50.180Z,10.60
2023-06-18T18:02:20.071Z,10.10
2023-06-18T18:04:50.577Z,10.30
2023-06-18T18:07:21.649Z,11.40
2023-06-18T18:09:52.152Z,10.00
2023-06-18T18:12:22.001Z,9.50
2023-06-18T18:14:52.219Z,9.30
2023-06-18T18:17:22.303Z,9.80
2023-06-18T18:19:56.122Z,10.70
2023-06-18T18:22:26.041Z,10.70
2023-06-18T18:24:56.128Z,10.70
2023-06-18T18:27:26.110Z,11.10
2023-06-18T18:29:56.028Z,12.00
2023-06-18T18:32:26.200Z,13.60
2023-06-18T18:34:56.355Z,13.60
2023-06-18T18:37:26.479Z,16.20
2023-06-18T18:39:56.695Z,15.10
2023-06-18T18:42:27.247Z,18.10
2023-06-18T18:44:57.192Z,15.50
2023-06-18T18:47:27.368Z,13.70
2023-06-18T18:49:57.669Z,14.30
2023-06-18T18:52:28.577Z,14.70
2023-06-18T18:54:58.773Z,11.60
2023-06-18T18:57:28.991Z,11.40
2023-06-18T18:59:59.466Z,11.50
2023-06-18T19:02:30.504Z,12.70
2023-06-18T19:05:00.694Z,13.60
2023-06-18T19:07:31.033Z,11.40
2023-06-18T19:10:01.043Z,12.90
2023-06-18T19:12:31.265Z,11.50
2023-06-18T19:15:02.582Z,12.00
2023-06-18T19:17:33.372Z,11.20
2023-06-18T19:20:04.399Z,11.60
2023-06-18T19:22:35.221Z,11.90
2023-06-18T19:25:07.659Z,13.60
2023-06-18T19:27:38.070Z,11.20
2023-06-18T19:30:09.706Z,11.90
2023-06-18T19:32:39.835Z,12.10
2023-06-18T19:35:11.061Z,9.90
2023-06-18T19:49:31.533Z,10.80
2023-06-18T19:52:01.587Z,9.90
2023-06-18T19:54:33.873Z,10.80
2023-06-18T19:57:04.250Z,11.60
2023-06-18T19:59:36.296Z,11.90
2023-06-18T20:02:06.433Z,10.70
2023-06-18T20:04:36.458Z,10.90
2023-06-18T20:07:06.788Z,9.90
2023-06-18T20:09:36.865Z,11.90
2023-06-18T20:12:09.038Z,10.50
2023-06-18T20:14:39.072Z,11.00
2023-06-18T20:17:11.184Z,12.00
2023-06-18T20:19:41.436Z,10.30
2023-06-18T20:22:11.754Z,10.20
2023-06-18T20:24:41.825Z,11.20
2023-06-18T20:27:11.737Z,10.90
2023-06-18T20:29:42.825Z,11.50
2023-06-18T20:32:12.736Z,11.10
2023-06-18T20:34:42.641Z,10.00
2023-06-18T20:37:14.894Z,9.90
2023-06-18T20:39:45.661Z,17.00
2023-06-18T20:42:15.579Z,13.00
2023-06-18T20:44:46.078Z,10.70
2023-06-18T20:47:16.390Z,10.90
2023-06-18T20:49:46.678Z,10.20
2023-06-18T20:52:17.033Z,11.70
2023-06-18T20:54:47.241Z,11.30
2023-06-18T20:57:17.574Z,9.80
2023-06-18T20:59:49.651Z,11.30
2023-06-18T21:02:23.710Z,12.00
2023-06-18T21:04:53.902Z,11.90
2023-06-18T21:07:23.959Z,11.90
2023-06-18T21:09:54.158Z,11.70
2023-06-18T21:12:24.158Z,13.10
2023-06-18T21:14:54.352Z,11.80
2023-06-18T21:17:24.419Z,12.40
2023-06-18T21:19:54.350Z,12.20
2023-06-18T21:22:24.338Z,12.50
2023-06-18T21:24:54.714Z,12.20
2023-06-18T21:27:24.716Z,13.00
2023-06-18T21:29:54.733Z,13.30
2023-06-18T21:32:24.700Z,12.10
2023-06-18T21:34:54.936Z,11.70
2023-06-18T21:37:25.116Z,11.90
2023-06-18T21:39:55.081Z,14.20
2023-06-18T21:42:25.382Z,11.70
2023-06-18T21:44:55.433Z,11.20
2023-06-18T21:47:25.432Z,14.70
2023-06-18T21:49:55.546Z,13.00
2023-06-18T21:52:25.790Z,13.00
2023-06-18T21:54:55.946Z,11.50
2023-06-18T21:57:26.565Z,13.40
2023-06-18T21:59:57.809Z,13.40
2023-06-18T22:02:28.065Z,12.80
2023-06-18T22:04:58.050Z,11.60
2023-06-18T22:07:28.516Z,12.10
2023-06-18T22:09:58.595Z,11.30
2023-06-18T22:12:28.469Z,12.60
2023-06-18T22:14:58.443Z,10.70
2023-06-18T22:17:29.303Z,11.60
2023-06-18T22:19:59.245Z,11.30
2023-06-18T22:22:29.493Z,11.90
2023-06-18T22:24:59.755Z,11.50
2023-06-18T22:27:29.610Z,11.00
2023-06-18T22:30:00.056Z,10.60
2023-06-18T22:32:30.015Z,11.30
2023-06-18T22:34:59.872Z,12.00
2023-06-18T22:37:30.303Z,11.20
2023-06-18T22:40:02.189Z,9.60
2023-06-18T22:42:33.421Z,10.40
2023-06-18T22:45:03.477Z,11.20
2023-06-18T22:47:33.739Z,11.10
2023-06-18T22:50:03.947Z,13.10
2023-06-18T22:52:33.934Z,10.80
2023-06-18T22:55:04.712Z,10.60
2023-06-18T22:57:34.771Z,10.80
2023-06-18T23:00:09.423Z,10.50
2023-06-18T23:02:39.658Z,10.30
2023-06-18T23:05:10.176Z,11.30
2023-06-18T23:07:40.426Z,11.20
2023-06-18T23:10:12.055Z,12.50
2023-06-18T23:12:42.243Z,11.30
2023-06-18T23:15:13.402Z,10.70
2023-06-18T23:17:43.358Z,11.20
2023-06-18T23:20:14.461Z,11.20
2023-06-18T23:22:49.374Z,10.70
2023-06-18T23:25:19.841Z,10.50
2023-06-18T23:27:49.954Z,11.00
2023-06-18T23:30:20.378Z,12.40
2023-06-18T23:32:50.592Z,11.00
2023-06-18T23:35:20.553Z,10.30
2023-06-18T23:37:50.820Z,10.50
2023-06-18T23:40:23.373Z,10.80
2023-06-18T23:42:53.946Z,11.00
2023-06-18T23:45:23.802Z,11.00
2023-06-18T23:47:53.853Z,11.30
2023-06-18T23:50:24.126Z,12.40
2023-06-18T23:52:54.143Z,11.00
2023-06-18T23:55:25.250Z,11.70
2023-06-18T23:57:55.340Z,10.90
